Time;durP1;ratioP1;P1;durP2;ratioP2;P2;SDS_P1;SDS_P2;PMS_P1;PMS_P2;Temp;Humidity;BMP_temperature;BMP_pressure;BME280_temperature;BME280_humidity;BME280_pressure;Samples;Min_cycle;Max_cycle;Signal;HPM_P1;HPM_P2
2021/05/01 00:00:19;;;;;;;20.15;13.30;;;;;;;;;;1478206;40;20711;-78
2021/05/01 00:01:20;;;;;;;21.40;15.00;;;;;;;;;;1477876;40;20398;-78
2021/05/01 00:02:21;;;;;;;23.45;14.65;;;;;;;;;;1478846;40;20426;-78
2021/05/01 00:03:22;;;;;;;24.38;14.73;;;;;;;;;;1474466;40;20411;-79
2021/05/01 00:04:23;;;;;;;20.23;14.82;;;;;;;;;;1470055;40;20663;-78
2021/05/01 00:05:25;;;;;;;22.35;14.75;;;;;;;;;;1473841;40;20433;-79
2021/05/01 00:06:27;;;;;;;24.70;15.48;;;;;;;;;;1475302;40;20833;-78
2021/05/01 00:07:28;;;;;;;23.23;15.15;;;;;;;;;;1476196;40;20392;-78
2021/05/01 00:08:29;;;;;;;17.70;14.77;;;;;;;;;;1474902;40;20399;-78
2021/05/01 00:09:30;;;;;;;20.63;15.32;;;;;;;;;;1474585;40;20396;-80
2021/05/01 00:10:32;;;;;;;20.05;14.88;;;;;;;;;;1474587;40;20412;-79
2021/05/01 00:11:33;;;;;;;21.77;13.93;;;;;;;;;;1474710;40;20411;-79
2021/05/01 00:12:37;;;;;;;18.50;13.55;;;;;;;;;;1475975;40;20404;-79
2021/05/01 00:13:38;;;;;;;25.90;13.80;;;;;;;;;;1475545;40;20736;-78
2021/05/01 00:14:39;;;;;;;20.83;14.32;;;;;;;;;;1480097;40;20725;-78
2021/05/01 00:15:40;;;;;;;20.80;13.65;;;;;;;;;;1474035;40;20674;-78
2021/05/01 00:16:41;;;;;;;23.27;14.23;;;;;;;;;;1473717;40;20482;-78
2021/05/01 00:17:42;;;;;;;18.27;13.93;;;;;;;;;;1473564;40;20416;-79
2021/05/01 00:18:43;;;;;;;21.77;13.68;;;;;;;;;;1469577;40;20471;-79
2021/05/01 00:19:44;;;;;;;18.70;12.75;;;;;;;;;;1475137;40;20416;-78
2021/05/01 00:20:45;;;;;;;18.73;14.10;;;;;;;;;;1480855;40;20395;-78
2021/05/01 00:21:47;;;;;;;19.92;13.40;;;;;;;;;;1481338;40;20441;-77
2021/05/01 00:22:48;;;;;;;22.33;14.20;;;;;;;;;;1479937;40;20723;-79
2021/05/01 00:23:49;;;;;;;22.23;15.15;;;;;;;;;;1473973;40;20423;-79
2021/05/01 00:24:50;;;;;;;16.83;13.55;;;;;;;;;;1475157;40;20427;-78
2021/05/01 00:25:51;;;;;;;15.45;11.63;;;;;;;;;;1481962;40;20406;-78
2021/05/01 00:26:52;;;;;;;23.65;13.85;;;;;;;;;;1477330;40;20634;-78
2021/05/01 00:27:53;;;;;;;19.70;13.77;;;;;;;;;;1473349;40;20421;-78
2021/05/01 00:28:54;;;;;;;19.67;13.35;;;;;;;;;;1471593;40;20405;-78
2021/05/01 00:29:55;;;;;;;18.60;12.68;;;;;;;;;;1475003;40;20419;-78
2021/05/01 00:30:56;;;;;;;20.05;12.27;;;;;;;;;;1472946;40;20798;-78
2021/05/01 00:31:57;;;;;;;23.08;13.73;;;;;;;;;;1474271;40;20411;-79
2021/05/01 00:32:58;;;;;;;15.60;12.82;;;;;;;;;;1478656;40;20787;-78
2021/05/01 00:33:59;;;;;;;19.67;12.73;;;;;;;;;;1478396;40;20795;-78
2021/05/01 00:35:01;;;;;;;20.70;13.55;;;;;;;;;;1478664;40;20532;-79
2021/05/01 00:36:02;;;;;;;20.35;12.73;;;;;;;;;;1478233;40;20644;-78
2021/05/01 00:37:03;;;;;;;20.20;12.83;;;;;;;;;;1473615;40;20419;-79
2021/05/01 00:38:06;;;;;;;17.50;13.40;;;;;;;;;;1473780;40;20411;-78
2021/05/01 00:39:07;;;;;;;19.55;13.25;;;;;;;;;;1473749;40;20412;-78
2021/05/01 00:40:08;;;;;;;18.70;13.60;;;;;;;;;;1473464;40;20420;-78
2021/05/01 00:41:10;;;;;;;26.17;12.77;;;;;;;;;;1473872;40;20420;-78
2021/05/01 00:42:10;;;;;;;18.67;12.98;;;;;;;;;;1469718;40;20473;-79
2021/05/01 00:43:12;;;;;;;17.33;13.23;;;;;;;;;;1473549;40;20412;-78
2021/05/01 00:44:13;;;;;;;21.13;12.60;;;;;;;;;;1473924;40;20411;-79
2021/05/01 00:45:14;;;;;;;17.67;12.07;;;;;;;;;;1473904;40;20415;-78
2021/05/01 00:46:15;;;;;;;16.73;12.00;;;;;;;;;;1482337;40;20789;-78
2021/05/01 00:47:16;;;;;;;17.08;12.70;;;;;;;;;;1477350;40;20767;-78
2021/05/01 00:48:17;;;;;;;20.10;12.15;;;;;;;;;;1478051;40;20391;-79
2021/05/01 00:49:18;;;;;;;18.77;10.93;;;;;;;;;;1479642;40;20405;-79
2021/05/01 00:50:19;;;;;;;14.52;11.02;;;;;;;;;;1478396;40;20652;-78
2021/05/01 00:51:20;;;;;;;19.17;11.55;;;;;;;;;;1473663;40;20420;-79
2021/05/01 00:52:21;;;;;;;18.60;11.80;;;;;;;;;;1473762;40;20396;-78
2021/05/01 00:53:22;;;;;;;14.32;11.43;;;;;;;;;;1473754;40;20482;-78
2021/05/01 00:54:23;;;;;;;17.50;11.98;;;;;;;;;;1473234;40;20470;-78
2021/05/01 00:55:24;;;;;;;21.33;12.30;;;;;;;;;;1468883;40;20420;-78
2021/05/01 00:56:26;;;;;;;17.50;10.80;;;;;;;;;;1473762;40;20440;-79
2021/05/01 00:57:27;;;;;;;18.50;10.70;;;;;;;;;;1478383;40;20462;-79
2021/05/01 00:58:28;;;;;;;18.42;11.40;;;;;;;;;;1475208;40;20852;-78
2021/05/01 00:59:29;;;;;;;15.35;10.82;;;;;;;;;;1478368;40;20417;-78
2021/05/01 01:01:52;;;;;;;15.95;11.90;;;;;;;;;;1473995;40;20451;-79
2021/05/01 01:02:56;;;;;;;24.65;11.38;;;;;;;;;;1473990;40;20420;-78
2021/05/01 01:03:57;;;;;;;18.10;11.93;;;;;;;;;;1476135;40;20454;-78
2021/05/01 01:04:58;;;;;;;17.55;11.98;;;;;;;;;;1478107;40;20642;-78
2021/05/01 01:05:59;;;;;;;21.17;11.77;;;;;;;;;;1478259;40;20406;-78
2021/05/01 01:07:00;;;;;;;16.40;10.88;;;;;;;;;;1478451;40;20418;-77
2021/05/01 01:08:01;;;;;;;16.27;11.65;;;;;;;;;;1477315;40;20417;-78
2021/05/01 01:09:02;;;;;;;19.52;11.98;;;;;;;;;;1477955;40;20815;-78
2021/05/01 01:10:04;;;;;;;16.25;10.93;;;;;;;;;;1473193;40;20448;-78
2021/05/01 01:11:05;;;;;;;17.95;11.80;;;;;;;;;;1473770;40;20400;-78
2021/05/01 01:12:06;;;;;;;16.50;12.30;;;;;;;;;;1478137;40;20557;-78
2021/05/01 01:13:07;;;;;;;16.58;10.98;;;;;;;;;;1477078;40;20423;-77
2021/05/01 01:14:09;;;;;;;17.92;10.77;;;;;;;;;;1475446;40;20834;-78
2021/05/01 01:15:10;;;;;;;15.73;11.13;;;;;;;;;;1471995;40;20412;-78
2021/05/01 01:16:11;;;;;;;13.88;11.13;;;;;;;;;;1470377;40;20443;-79
2021/05/01 01:17:12;;;;;;;18.13;12.02;;;;;;;;;;1473866;40;20419;-78
2021/05/01 01:18:14;;;;;;;15.55;11.50;;;;;;;;;;1474042;40;20399;-78
2021/05/01 01:19:16;;;;;;;17.00;12.05;;;;;;;;;;1471836;40;20402;-79
2021/05/01 01:20:17;;;;;;;17.10;11.80;;;;;;;;;;1476115;40;20661;-80
2021/05/01 01:21:20;;;;;;;16.92;12.48;;;;;;;;;;1473631;40;20404;-78
2021/05/01 01:22:21;;;;;;;14.13;12.10;;;;;;;;;;1469527;40;20440;-77
2021/05/01 01:23:22;;;;;;;13.27;11.45;;;;;;;;;;1471358;40;20467;-79
2021/05/01 01:24:25;;;;;;;18.33;11.63;;;;;;;;;;1473529;40;20404;-78
2021/05/01 01:25:26;;;;;;;21.48;11.68;;;;;;;;;;1473214;40;20419;-78
2021/05/01 01:26:27;;;;;;;19.15;11.55;;;;;;;;;;1477700;40;20830;-78
2021/05/01 01:27:28;;;;;;;17.65;12.32;;;;;;;;;;1478509;40;20405;-79
2021/05/01 01:28:29;;;;;;;15.00;12.80;;;;;;;;;;1476750;40;20418;-78
2021/05/01 01:29:30;;;;;;;15.73;11.43;;;;;;;;;;1474113;40;20527;-78
2021/05/01 01:30:32;;;;;;;16.40;11.27;;;;;;;;;;1476821;40;20414;-79
2021/05/01 01:31:33;;;;;;;15.35;12.07;;;;;;;;;;1478382;40;20409;-78
2021/05/01 01:32:34;;;;;;;19.05;11.60;;;;;;;;;;1478010;40;20416;-79
2021/05/01 01:33:36;;;;;;;18.17;12.23;;;;;;;;;;1473013;40;20464;-79
2021/05/01 01:34:44;;;;;;;15.07;11.48;;;;;;;;;;1480157;40;20484;-78
2021/05/01 01:35:45;;;;;;;15.90;12.40;;;;;;;;;;1482658;40;20518;-79
2021/05/01 01:36:46;;;;;;;15.77;12.20;;;;;;;;;;1482547;40;20497;-78
2021/05/01 01:37:48;;;;;;;16.98;11.93;;;;;;;;;;1483558;40;20450;-79
2021/05/01 01:38:49;;;;;;;16.90;11.80;;;;;;;;;;1483872;40;20406;-78
2021/05/01 01:39:50;;;;;;;16.45;10.00;;;;;;;;;;1486967;40;20889;-78
2021/05/01 01:40:51;;;;;;;13.90;10.87;;;;;;;;;;1484880;40;21031;-78
2021/05/01 01:41:52;;;;;;;16.38;10.68;;;;;;;;;;1479953;40;20429;-78
2021/05/01 01:42:53;;;;;;;19.23;11.38;;;;;;;;;;1478265;40;20418;-78
2021/05/01 01:43:54;;;;;;;15.55;12.55;;;;;;;;;;1472612;40;20423;-78
2021/05/01 01:44:56;;;;;;;16.40;11.13;;;;;;;;;;1473392;40;20840;-78
2021/05/01 01:46:00;;;;;;;14.50;11.38;;;;;;;;;;1477253;40;20524;-79
2021/05/01 01:47:01;;;;;;;16.15;12.23;;;;;;;;;;1478320;40;20401;-78
2021/05/01 01:48:03;;;;;;;15.20;11.48;;;;;;;;;;1469634;40;20861;-78
2021/05/01 01:49:04;;;;;;;15.02;11.88;;;;;;;;;;1465075;40;20403;-79
2021/05/01 01:50:07;;;;;;;19.23;11.83;;;;;;;;;;1469705;40;20534;-78
2021/05/01 01:51:08;;;;;;;16.07;10.93;;;;;;;;;;1469506;40;20609;-79
2021/05/01 01:52:09;;;;;;;17.13;12.30;;;;;;;;;;1473827;40;20444;-79
2021/05/01 01:53:10;;;;;;;16.00;11.57;;;;;;;;;;1474044;40;20422;-79
2021/05/01 01:54:11;;;;;;;16.30;12.15;;;;;;;;;;1469669;40;20746;-78
2021/05/01 01:55:17;;;;;;;13.93;10.87;;;;;;;;;;1473516;40;20431;-78
2021/05/01 01:56:18;;;;;;;17.48;12.13;;;;;;;;;;1473844;40;20834;-78
2021/05/01 01:57:19;;;;;;;16.55;11.07;;;;;;;;;;1470523;40;20405;-78
2021/05/01 01:58:21;;;;;;;14.45;11.48;;;;;;;;;;1471657;40;20411;-77
2021/05/01 01:59:22;;;;;;;15.77;12.23;;;;;;;;;;1479531;40;20440;-78
2021/05/01 02:00:24;;;;;;;15.30;11.35;;;;;;;;;;1476138;40;20415;-79
2021/05/01 02:01:26;;;;;;;19.73;11.75;;;;;;;;;;1476562;40;20443;-79
2021/05/01 02:02:27;;;;;;;15.38;12.48;;;;;;;;;;1479182;40;20791;-77
2021/05/01 02:03:28;;;;;;;16.05;12.25;;;;;;;;;;1478787;40;20405;-78
2021/05/01 02:04:29;;;;;;;15.93;11.77;;;;;;;;;;1481775;40;20393;-78
2021/05/01 02:05:30;;;;;;;18.42;12.45;;;;;;;;;;1482807;40;20408;-78
2021/05/01 02:06:31;;;;;;;14.38;11.40;;;;;;;;;;1482820;40;20842;-78
2021/05/01 02:07:39;;;;;;;17.00;12.55;;;;;;;;;;1482979;40;20513;-78
2021/05/01 02:08:40;;;;;;;15.98;11.35;;;;;;;;;;1482819;40;20420;-78
2021/05/01 02:09:41;;;;;;;19.30;12.95;;;;;;;;;;1482561;40;20408;-79
2021/05/01 02:10:42;;;;;;;17.73;14.27;;;;;;;;;;1479664;40;20397;-80
2021/05/01 02:11:43;;;;;;;18.33;14.35;;;;;;;;;;1478662;40;20422;-78
2021/05/01 02:12:45;;;;;;;20.08;13.55;;;;;;;;;;1469591;40;20975;-78
2021/05/01 02:13:46;;;;;;;19.27;14.93;;;;;;;;;;1468550;40;20752;-79
2021/05/01 02:14:47;;;;;;;15.25;13.00;;;;;;;;;;1475100;40;20418;-78
2021/05/01 02:15:48;;;;;;;20.63;13.77;;;;;;;;;;1478602;40;20401;-78
2021/05/01 02:16:49;;;;;;;20.30;13.77;;;;;;;;;;1478596;40;20398;-78
2021/05/01 02:17:52;;;;;;;15.68;13.63;;;;;;;;;;1473820;40;20412;-79
2021/05/01 02:18:53;;;;;;;15.07;13.43;;;;;;;;;;1474241;40;20693;-78
2021/05/01 02:19:54;;;;;;;19.02;14.35;;;;;;;;;;1476918;40;20457;-78
2021/05/01 02:20:55;;;;;;;16.63;13.20;;;;;;;;;;1478703;40;20422;-78
2021/05/01 02:21:55;;;;;;;17.80;14.57;;;;;;;;;;1478100;40;20417;-79
2021/05/01 02:22:57;;;;;;;19.77;14.05;;;;;;;;;;1477149;40;20480;-80
2021/05/01 02:23:58;;;;;;;23.52;15.05;;;;;;;;;;1478242;40;20409;-79
2021/05/01 02:24:59;;;;;;;18.13;13.82;;;;;;;;;;1473762;40;20416;-79
2021/05/01 02:26:00;;;;;;;19.50;14.17;;;;;;;;;;1469673;40;20499;-78
2021/05/01 02:27:02;;;;;;;18.83;13.20;;;;;;;;;;1470060;40;20449;-78
2021/05/01 02:28:04;;;;;;;17.88;12.95;;;;;;;;;;1473160;40;20459;-78
2021/05/01 02:29:05;;;;;;;19.38;15.45;;;;;;;;;;1471492;40;20405;-78
2021/05/01 02:30:07;;;;;;;18.63;13.80;;;;;;;;;;1475916;40;20413;-78
2021/05/01 02:31:08;;;;;;;16.55;12.98;;;;;;;;;;1477992;40;21264;-78
2021/05/01 02:32:09;;;;;;;19.38;13.57;;;;;;;;;;1478376;40;20417;-78
2021/05/01 02:33:10;;;;;;;19.98;13.82;;;;;;;;;;1478898;40;20386;-78
2021/05/01 02:34:11;;;;;;;16.63;12.80;;;;;;;;;;1476387;40;20432;-78
2021/05/01 02:35:17;;;;;;;16.45;12.98;;;;;;;;;;1477404;40;20552;-78
2021/05/01 02:36:18;;;;;;;19.40;13.30;;;;;;;;;;1474207;40;20440;-77
2021/05/01 02:37:19;;;;;;;16.73;11.95;;;;;;;;;;1473784;40;20411;-78
2021/05/01 02:38:20;;;;;;;15.88;12.48;;;;;;;;;;1478652;40;20420;-78
2021/05/01 02:39:21;;;;;;;17.88;12.52;;;;;;;;;;1478330;40;20787;-78
2021/05/01 02:40:22;;;;;;;14.55;11.70;;;;;;;;;;1478709;40;20504;-78
2021/05/01 02:41:24;;;;;;;16.75;12.05;;;;;;;;;;1478024;40;20478;-78
2021/05/01 02:42:25;;;;;;;20.98;13.52;;;;;;;;;;1478287;40;20398;-78
2021/05/01 02:43:26;;;;;;;19.23;13.55;;;;;;;;;;1476335;40;20432;-78
2021/05/01 02:44:27;;;;;;;20.70;13.18;;;;;;;;;;1478578;40;20831;-78
2021/05/01 02:45:29;;;;;;;19.63;14.52;;;;;;;;;;1475443;40;20453;-78
2021/05/01 02:46:30;;;;;;;17.88;13.75;;;;;;;;;;1465616;40;20865;-79
2021/05/01 02:47:30;;;;;;;18.27;14.27;;;;;;;;;;1465859;40;20399;-77
2021/05/01 02:48:32;;;;;;;18.40;13.63;;;;;;;;;;1477411;40;20422;-78
2021/05/01 02:49:33;;;;;;;19.10;13.63;;;;;;;;;;1479129;40;20421;-78
2021/05/01 02:50:34;;;;;;;18.15;13.10;;;;;;;;;;1475201;40;20423;-79
2021/05/01 02:51:35;;;;;;;17.52;13.98;;;;;;;;;;1475883;40;20396;-78
2021/05/01 02:52:36;;;;;;;18.10;12.60;;;;;;;;;;1480586;40;20394;-79
2021/05/01 02:53:37;;;;;;;20.83;12.45;;;;;;;;;;1480773;40;20403;-79
2021/05/01 02:54:38;;;;;;;17.65;12.25;;;;;;;;;;1480907;40;20422;-77
2021/05/01 02:55:39;;;;;;;15.80;12.87;;;;;;;;;;1480460;40;20449;-78
2021/05/01 02:56:40;;;;;;;19.52;13.77;;;;;;;;;;1479727;40;20714;-78
2021/05/01 02:57:41;;;;;;;18.35;12.30;;;;;;;;;;1480507;40;20402;-77
2021/05/01 02:58:41;;;;;;;22.20;12.63;;;;;;;;;;1478494;40;20450;-78
2021/05/01 02:59:42;;;;;;;16.48;12.73;;;;;;;;;;1475969;40;20478;-78
2021/05/01 03:00:43;;;;;;;16.52;12.25;;;;;;;;;;1475263;40;20846;-78
2021/05/01 03:01:44;;;;;;;15.87;11.47;;;;;;;;;;1477021;40;20530;-77
2021/05/01 03:02:46;;;;;;;14.90;11.98;;;;;;;;;;1477957;40;20410;-76
2021/05/01 03:03:47;;;;;;;16.88;12.00;;;;;;;;;;1477350;40;20963;-77
2021/05/01 03:04:47;;;;;;;13.60;11.63;;;;;;;;;;1470537;40;20442;-78
2021/05/01 03:05:48;;;;;;;12.65;11.18;;;;;;;;;;1470017;40;20891;-77
2021/05/01 03:06:49;;;;;;;18.03;11.63;;;;;;;;;;1470321;40;20401;-78
2021/05/01 03:07:51;;;;;;;16.15;11.48;;;;;;;;;;1470188;40;20808;-79
2021/05/01 03:08:52;;;;;;;16.80;11.48;;;;;;;;;;1474404;40;20411;-78
2021/05/01 03:09:53;;;;;;;13.48;11.52;;;;;;;;;;1474294;40;20774;-78
2021/05/01 03:10:54;;;;;;;15.63;11.68;;;;;;;;;;1470066;40;20471;-77
2021/05/01 03:11:55;;;;;;;14.38;11.35;;;;;;;;;;1475295;40;20988;-77
2021/05/01 03:12:57;;;;;;;13.45;10.63;;;;;;;;;;1479167;40;20940;-78
2021/05/01 03:13:58;;;;;;;16.08;12.25;;;;;;;;;;1476008;40;20400;-78
2021/05/01 03:14:59;;;;;;;16.17;12.32;;;;;;;;;;1475461;40;20535;-77
2021/05/01 03:16:00;;;;;;;15.52;10.73;;;;;;;;;;1478389;40;20778;-78
2021/05/01 03:17:02;;;;;;;13.73;10.98;;;;;;;;;;1473945;40;20462;-78
2021/05/01 03:18:04;;;;;;;12.98;10.60;;;;;;;;;;1473811;40;20399;-78
2021/05/01 03:19:05;;;;;;;11.52;10.13;;;;;;;;;;1477303;40;20402;-77
2021/05/01 03:20:07;;;;;;;16.42;11.57;;;;;;;;;;1467665;40;20409;-77
2021/05/01 03:21:08;;;;;;;12.52;10.73;;;;;;;;;;1470135;40;20449;-78
2021/05/01 03:22:09;;;;;;;13.90;10.02;;;;;;;;;;1477929;40;21033;-77
2021/05/01 03:23:10;;;;;;;12.25;10.90;;;;;;;;;;1473738;40;20400;-78
2021/05/01 03:24:12;;;;;;;14.68;11.13;;;;;;;;;;1473678;40;20727;-78
2021/05/01 03:25:13;;;;;;;16.55;11.77;;;;;;;;;;1477085;40;20642;-77
2021/05/01 03:26:16;;;;;;;12.48;11.18;;;;;;;;;;1478633;40;20424;-78
2021/05/01 03:27:17;;;;;;;12.88;10.93;;;;;;;;;;1473566;40;20831;-78
2021/05/01 03:28:21;;;;;;;12.15;10.43;;;;;;;;;;1473174;40;20416;-77
2021/05/01 03:29:22;;;;;;;12.35;10.43;;;;;;;;;;1474391;40;20450;-78
2021/05/01 03:30:22;;;;;;;15.90;11.10;;;;;;;;;;1476894;40;20390;-78
2021/05/01 03:31:23;;;;;;;13.55;10.55;;;;;;;;;;1478399;40;20403;-78
2021/05/01 03:32:25;;;;;;;12.32;10.20;;;;;;;;;;1473259;40;20514;-78
2021/05/01 03:33:28;;;;;;;14.23;10.15;;;;;;;;;;1469341;40;20409;-78
2021/05/01 03:34:29;;;;;;;14.80;9.65;;;;;;;;;;1472213;40;20462;-78
2021/05/01 03:35:29;;;;;;;14.57;10.55;;;;;;;;;;1473657;40;20801;-78
2021/05/01 03:36:31;;;;;;;14.23;10.57;;;;;;;;;;1473630;40;20400;-79
2021/05/01 03:37:31;;;;;;;14.13;10.13;;;;;;;;;;1478303;40;20700;-78
2021/05/01 03:38:33;;;;;;;17.50;10.07;;;;;;;;;;1477770;40;20407;-78
2021/05/01 03:39:34;;;;;;;14.27;10.88;;;;;;;;;;1473442;40;20408;-77
2021/05/01 03:40:35;;;;;;;15.45;10.73;;;;;;;;;;1474232;40;20396;-78
2021/05/01 03:41:36;;;;;;;12.00;10.45;;;;;;;;;;1477834;40;20422;-79
2021/05/01 03:42:37;;;;;;;15.27;9.60;;;;;;;;;;1469845;40;20579;-79
2021/05/01 03:43:38;;;;;;;17.27;11.27;;;;;;;;;;1469392;40;20405;-79
2021/05/01 03:44:39;;;;;;;13.98;9.68;;;;;;;;;;1474294;40;20416;-79
2021/05/01 03:45:40;;;;;;;12.32;10.10;;;;;;;;;;1481558;40;20457;-79
2021/05/01 03:46:41;;;;;;;14.27;9.90;;;;;;;;;;1482793;40;20491;-78
2021/05/01 03:47:42;;;;;;;13.65;9.63;;;;;;;;;;1482195;40;20397;-78
2021/05/01 03:48:43;;;;;;;11.18;9.88;;;;;;;;;;1477359;40;21200;-78
2021/05/01 03:49:44;;;;;;;12.65;10.07;;;;;;;;;;1473884;40;20416;-78
2021/05/01 03:50:45;;;;;;;12.57;9.88;;;;;;;;;;1477648;40;20406;-78
2021/05/01 03:51:47;;;;;;;21.10;9.73;;;;;;;;;;1478442;40;20411;-78
2021/05/01 03:52:47;;;;;;;13.00;9.13;;;;;;;;;;1478409;40;20402;-78
2021/05/01 03:53:48;;;;;;;10.40;9.02;;;;;;;;;;1478197;40;20775;-78
2021/05/01 03:54:49;;;;;;;12.30;9.73;;;;;;;;;;1478518;40;20418;-78
2021/05/01 03:55:50;;;;;;;15.25;10.10;;;;;;;;;;1473980;40;20412;-79
2021/05/01 03:56:51;;;;;;;14.60;10.38;;;;;;;;;;1473736;40;20456;-78
2021/05/01 03:57:52;;;;;;;11.85;10.15;;;;;;;;;;1469612;40;20412;-78
2021/05/01 03:58:55;;;;;;;13.95;10.13;;;;;;;;;;1470073;40;20418;-78
2021/05/01 03:59:56;;;;;;;12.90;10.27;;;;;;;;;;1476853;40;20424;-78
2021/05/01 04:00:57;;;;;;;14.85;10.75;;;;;;;;;;1477695;40;21134;-78
2021/05/01 04:01:58;;;;;;;14.88;11.48;;;;;;;;;;1478113;40;20431;-78
2021/05/01 04:02:59;;;;;;;14.83;11.00;;;;;;;;;;1476338;40;20396;-78
2021/05/01 04:04:00;;;;;;;14.38;10.55;;;;;;;;;;1475038;40;20405;-77
2021/05/01 04:05:01;;;;;;;15.52;10.98;;;;;;;;;;1473856;40;20409;-78
2021/05/01 04:06:04;;;;;;;18.45;10.85;;;;;;;;;;1479804;40;20444;-78
2021/05/01 04:07:05;;;;;;;16.58;10.80;;;;;;;;;;1480166;40;21024;-78
2021/05/01 04:08:06;;;;;;;13.68;10.10;;;;;;;;;;1475173;40;20503;-78
2021/05/01 04:09:08;;;;;;;14.23;10.30;;;;;;;;;;1474502;40;20448;-78
2021/05/01 04:10:10;;;;;;;14.43;10.93;;;;;;;;;;1478531;40;20422;-78
2021/05/01 04:11:11;;;;;;;16.60;11.27;;;;;;;;;;1474204;40;20400;-78
2021/05/01 04:12:12;;;;;;;11.02;9.52;;;;;;;;;;1473805;40;20411;-79
2021/05/01 04:13:13;;;;;;;11.27;9.45;;;;;;;;;;1475620;40;20400;-78
2021/05/01 04:14:14;;;;;;;10.52;9.48;;;;;;;;;;1475285;40;20731;-79
2021/05/01 04:15:15;;;;;;;16.15;9.95;;;;;;;;;;1475351;40;20418;-78
2021/05/01 04:16:19;;;;;;;12.48;9.82;;;;;;;;;;1474166;40;20408;-78
2021/05/01 04:17:20;;;;;;;10.63;9.57;;;;;;;;;;1469615;40;20402;-78
2021/05/01 04:18:21;;;;;;;10.73;9.63;;;;;;;;;;1474064;40;20920;-77
2021/05/01 04:19:22;;;;;;;11.30;10.10;;;;;;;;;;1478595;40;20398;-78
2021/05/01 04:20:24;;;;;;;12.40;9.52;;;;;;;;;;1474004;40;20412;-78
2021/05/01 04:21:25;;;;;;;10.80;8.98;;;;;;;;;;1474501;40;20395;-78
2021/05/01 04:22:26;;;;;;;12.07;9.20;;;;;;;;;;1479452;40;20784;-78
2021/05/01 04:23:27;;;;;;;13.88;9.63;;;;;;;;;;1479338;40;20407;-78
2021/05/01 04:24:28;;;;;;;10.90;8.88;;;;;;;;;;1478968;40;20409;-78
2021/05/01 04:25:29;;;;;;;10.30;8.43;;;;;;;;;;1476546;40;20459;-78
2021/05/01 04:26:30;;;;;;;10.85;9.73;;;;;;;;;;1477603;40;20406;-78
2021/05/01 04:27:31;;;;;;;11.20;8.63;;;;;;;;;;1476087;40;20431;-78
2021/05/01 04:28:32;;;;;;;11.07;8.75;;;;;;;;;;1473543;40;20409;-78
2021/05/01 04:29:33;;;;;;;10.80;8.90;;;;;;;;;;1478351;40;20439;-78
2021/05/01 04:30:34;;;;;;;10.27;7.93;;;;;;;;;;1479273;40;20419;-78
2021/05/01 04:31:35;;;;;;;11.48;7.80;;;;;;;;;;1475870;40;20414;-78
2021/05/01 04:32:37;;;;;;;10.38;7.38;;;;;;;;;;1470305;40;20417;-78
2021/05/01 04:33:38;;;;;;;9.30;8.30;;;;;;;;;;1471058;40;20680;-78
2021/05/01 04:34:39;;;;;;;10.85;9.23;;;;;;;;;;1478025;40;20487;-79
2021/05/01 04:35:40;;;;;;;10.05;8.35;;;;;;;;;;1473774;40;20420;-79
2021/05/01 04:36:41;;;;;;;10.10;8.88;;;;;;;;;;1469620;40;20406;-78
2021/05/01 04:37:42;;;;;;;9.30;7.95;;;;;;;;;;1473443;40;20569;-78
2021/05/01 04:38:43;;;;;;;9.25;8.18;;;;;;;;;;1478384;40;20406;-78
2021/05/01 04:39:44;;;;;;;10.00;8.35;;;;;;;;;;1478246;40;20423;-78
2021/05/01 04:40:46;;;;;;;13.32;8.18;;;;;;;;;;1477140;40;20407;-78
2021/05/01 04:41:47;;;;;;;8.48;7.63;;;;;;;;;;1473614;40;20519;-78
2021/05/01 04:42:51;;;;;;;10.85;8.40;;;;;;;;;;1473643;40;20485;-78
2021/05/01 04:43:52;;;;;;;8.68;7.70;;;;;;;;;;1479406;40;20524;-78
2021/05/01 04:44:53;;;;;;;10.18;8.38;;;;;;;;;;1477815;40;20406;-78
2021/05/01 04:45:54;;;;;;;11.40;8.10;;;;;;;;;;1469030;40;20763;-78
2021/05/01 04:46:55;;;;;;;8.57;7.72;;;;;;;;;;1472589;40;20389;-78
2021/05/01 04:47:57;;;;;;;11.60;8.35;;;;;;;;;;1473195;40;20487;-78
2021/05/01 04:48:58;;;;;;;9.82;7.90;;;;;;;;;;1473224;40;20456;-78
2021/05/01 04:49:59;;;;;;;9.10;8.02;;;;;;;;;;1478105;40;20474;-78
2021/05/01 04:51:00;;;;;;;8.85;7.93;;;;;;;;;;1478275;40;20422;-78
2021/05/01 04:52:02;;;;;;;8.77;7.97;;;;;;;;;;1473568;40;20571;-78
2021/05/01 04:53:03;;;;;;;9.63;7.85;;;;;;;;;;1472891;40;20440;-78
2021/05/01 04:54:04;;;;;;;8.80;7.70;;;;;;;;;;1472576;40;20525;-78
2021/05/01 04:55:15;;;;;;;9.65;7.85;;;;;;;;;;1473937;40;20415;-78
2021/05/01 04:56:19;;;;;;;10.25;7.90;;;;;;;;;;1478362;40;20484;-78
2021/05/01 04:57:20;;;;;;;10.00;7.30;;;;;;;;;;1478209;40;20405;-78
2021/05/01 04:58:21;;;;;;;9.88;6.82;;;;;;;;;;1478145;40;20414;-78
2021/05/01 04:59:22;;;;;;;8.83;8.00;;;;;;;;;;1478182;40;20617;-79
2021/05/01 05:00:23;;;;;;;8.05;7.25;;;;;;;;;;1478188;40;20399;-78
2021/05/01 05:01:24;;;;;;;9.32;7.15;;;;;;;;;;1473623;40;20399;-78
2021/05/01 05:02:25;;;;;;;11.57;7.57;;;;;;;;;;1473298;40;20411;-78
2021/05/01 05:03:26;;;;;;;9.73;7.40;;;;;;;;;;1469926;40;20529;-78
2021/05/01 05:04:28;;;;;;;9.00;8.02;;;;;;;;;;1472833;40;20793;-78
2021/05/01 05:05:29;;;;;;;9.27;7.25;;;;;;;;;;1477200;40;20394;-78
2021/05/01 05:06:29;;;;;;;10.85;8.07;;;;;;;;;;1473392;40;20782;-78
2021/05/01 05:07:30;;;;;;;9.82;7.60;;;;;;;;;;1469306;40;20441;-78
2021/05/01 05:08:31;;;;;;;9.73;7.43;;;;;;;;;;1469235;40;20450;-78
2021/05/01 05:09:32;;;;;;;8.85;7.72;;;;;;;;;;1477937;40;20438;-78
2021/05/01 05:10:33;;;;;;;8.02;6.82;;;;;;;;;;1478280;40;20390;-78
2021/05/01 05:11:34;;;;;;;7.63;6.82;;;;;;;;;;1476492;40;20407;-79
2021/05/01 05:12:35;;;;;;;11.63;7.80;;;;;;;;;;1473789;40;20388;-78
2021/05/01 05:13:36;;;;;;;9.70;7.28;;;;;;;;;;1477015;40;20470;-78
2021/05/01 05:14:37;;;;;;;8.27;7.47;;;;;;;;;;1473959;40;20787;-78
2021/05/01 05:15:38;;;;;;;9.40;7.65;;;;;;;;;;1477538;40;20399;-78
2021/05/01 05:16:39;;;;;;;11.82;7.97;;;;;;;;;;1478386;40;20410;-79
2021/05/01 05:17:40;;;;;;;7.55;6.68;;;;;;;;;;1477080;40;20398;-78
2021/05/01 05:18:41;;;;;;;8.88;7.47;;;;;;;;;;1478537;40;20579;-79
2021/05/01 05:19:42;;;;;;;8.23;7.43;;;;;;;;;;1478018;40;20748;-79
2021/05/01 05:20:44;;;;;;;12.13;7.05;;;;;;;;;;1478457;40;20779;-79
2021/05/01 05:21:45;;;;;;;9.38;7.85;;;;;;;;;;1477874;40;20873;-79
2021/05/01 05:22:46;;;;;;;13.13;6.57;;;;;;;;;;1477823;40;20796;-77
2021/05/01 05:23:47;;;;;;;11.50;6.93;;;;;;;;;;1473371;40;20701;-78
2021/05/01 05:24:49;;;;;;;10.13;6.90;;;;;;;;;;1473198;40;20412;-78
2021/05/01 05:25:50;;;;;;;8.68;7.60;;;;;;;;;;1473551;40;20693;-78
2021/05/01 05:26:55;;;;;;;8.85;7.40;;;;;;;;;;1474369;40;20384;-78
2021/05/01 05:27:56;;;;;;;9.45;7.80;;;;;;;;;;1477694;40;20407;-78
2021/05/01 05:28:57;;;;;;;11.05;7.15;;;;;;;;;;1476293;40;20670;-78
2021/05/01 05:29:58;;;;;;;13.05;7.53;;;;;;;;;;1475428;40;20503;-78
2021/05/01 05:30:59;;;;;;;9.07;7.40;;;;;;;;;;1477796;40;20811;-78
2021/05/01 05:32:01;;;;;;;8.77;6.70;;;;;;;;;;1478868;40;20407;-79
2021/05/01 05:33:02;;;;;;;9.60;7.55;;;;;;;;;;1479139;40;21106;-78
2021/05/01 05:34:03;;;;;;;9.40;7.15;;;;;;;;;;1478785;40;20663;-79
2021/05/01 05:35:05;;;;;;;8.15;6.75;;;;;;;;;;1479435;40;20418;-78
2021/05/01 05:36:06;;;;;;;9.68;6.75;;;;;;;;;;1480416;40;20540;-78
2021/05/01 05:37:07;;;;;;;9.32;6.78;;;;;;;;;;1480295;40;20415;-80
2021/05/01 05:38:08;;;;;;;10.38;6.88;;;;;;;;;;1475889;40;20408;-78
2021/05/01 05:39:09;;;;;;;7.15;5.75;;;;;;;;;;1475830;40;20400;-78
2021/05/01 05:40:12;;;;;;;8.82;6.15;;;;;;;;;;1480342;40;20755;-79
2021/05/01 05:41:13;;;;;;;11.50;6.68;;;;;;;;;;1480389;40;20398;-78
2021/05/01 05:42:14;;;;;;;6.68;6.03;;;;;;;;;;1479898;40;20406;-78
2021/05/01 05:43:15;;;;;;;9.88;6.43;;;;;;;;;;1479105;40;20725;-78
2021/05/01 05:44:16;;;;;;;8.73;6.43;;;;;;;;;;1480406;40;20394;-78
2021/05/01 05:45:23;;;;;;;6.15;5.53;;;;;;;;;;1475617;40;20567;-78
2021/05/01 05:46:25;;;;;;;7.35;6.45;;;;;;;;;;1474483;40;20411;-78
2021/05/01 05:47:26;;;;;;;9.05;6.25;;;;;;;;;;1478387;40;20765;-78
2021/05/01 05:48:27;;;;;;;7.13;5.63;;;;;;;;;;1478063;40;20419;-79
2021/05/01 05:49:28;;;;;;;7.75;6.55;;;;;;;;;;1473424;40;20396;-78
2021/05/01 05:50:29;;;;;;;12.43;6.00;;;;;;;;;;1473912;40;20621;-78
2021/05/01 05:51:30;;;;;;;8.43;6.07;;;;;;;;;;1473942;40;20522;-78
2021/05/01 05:52:32;;;;;;;9.38;6.40;;;;;;;;;;1473347;40;20978;-78
2021/05/01 05:53:33;;;;;;;8.63;5.28;;;;;;;;;;1478279;40;20401;-78
2021/05/01 05:54:35;;;;;;;8.55;5.20;;;;;;;;;;1477979;40;20449;-78
2021/05/01 05:55:36;;;;;;;10.77;6.05;;;;;;;;;;1472363;40;20714;-78
2021/05/01 05:56:37;;;;;;;10.73;6.57;;;;;;;;;;1473721;40;20414;-79
2021/05/01 05:57:41;;;;;;;8.30;5.57;;;;;;;;;;1478300;40;20442;-79
2021/05/01 05:58:42;;;;;;;10.63;5.82;;;;;;;;;;1477961;40;20429;-80
2021/05/01 05:59:43;;;;;;;9.40;5.63;;;;;;;;;;1473353;40;20593;-79
2021/05/01 06:00:44;;;;;;;9.02;5.68;;;;;;;;;;1469686;40;20398;-79